createdAt,value
2019-02-18T00:00:18.302Z,2.63
2019-02-18T00:02:48.581Z,2.70
2019-02-18T00:05:18.185Z,3.27
2019-02-18T00:07:48.497Z,2.30
2019-02-18T00:10:21.861Z,2.60
2019-02-18T00:12:56.044Z,2.30
2019-02-18T00:15:26.799Z,2.40
2019-02-18T00:17:55.927Z,2.23
2019-02-18T00:20:27.565Z,2.17
2019-02-18T00:22:58.742Z,2.57
2019-02-18T00:25:31.035Z,2.83
2019-02-18T00:28:02.202Z,2.53
2019-02-18T00:30:33.438Z,3.43
2019-02-18T00:33:02.645Z,2.77
2019-02-18T00:35:34.053Z,2.43
2019-02-18T00:38:04.373Z,2.10
2019-02-18T00:40:36.894Z,2.00
2019-02-18T00:43:09.641Z,2.23
2019-02-18T00:45:39.804Z,2.40
2019-02-18T00:48:12.147Z,3.43
2019-02-18T00:53:23.771Z,2.67
2019-02-18T00:55:54.025Z,2.70
2019-02-18T00:58:24.019Z,2.03
2019-02-18T01:00:55.562Z,2.10
2019-02-18T01:03:25.816Z,2.70
2019-02-18T01:05:57.392Z,2.30
2019-02-18T01:08:27.089Z,2.37
2019-02-18T01:10:57.004Z,2.03
2019-02-18T01:13:30.861Z,2.33
2019-02-18T01:16:01.565Z,1.80
2019-02-18T01:18:32.761Z,2.33
2019-02-18T01:21:07.140Z,2.13
2019-02-18T01:23:42.253Z,1.90
2019-02-18T01:26:12.525Z,1.40
2019-02-18T01:28:44.402Z,2.17
2019-02-18T01:31:16.442Z,2.40
2019-02-18T01:33:49.244Z,2.10
2019-02-18T01:36:23.006Z,2.10
2019-02-18T01:38:52.818Z,2.10
2019-02-18T01:41:25.236Z,1.90
2019-02-18T01:43:56.149Z,2.17
2019-02-18T01:46:25.615Z,1.93
2019-02-18T01:48:57.230Z,1.70
2019-02-18T01:51:28.620Z,2.87
2019-02-18T01:53:58.269Z,1.80
2019-02-18T01:56:29.486Z,2.40
2019-02-18T01:59:00.853Z,1.90
2019-02-18T02:01:30.057Z,1.37
2019-02-18T02:04:00.157Z,1.83
2019-02-18T02:06:29.779Z,2.23
2019-02-18T02:08:58.899Z,1.80
2019-02-18T02:11:32.602Z,1.50
2019-02-18T02:14:02.904Z,1.63
2019-02-18T02:16:33.248Z,1.77
2019-02-18T02:19:05.784Z,1.60
2019-02-18T02:21:37.971Z,2.40
2019-02-18T02:24:08.112Z,2.30
2019-02-18T02:26:38.212Z,1.57
2019-02-18T02:29:07.830Z,2.33
2019-02-18T02:31:38.391Z,1.80
2019-02-18T02:34:13.384Z,1.97
2019-02-18T02:36:42.608Z,2.87
2019-02-18T02:39:14.042Z,1.80
2019-02-18T02:41:44.818Z,2.30
2019-02-18T02:44:16.351Z,2.03
2019-02-18T02:46:47.155Z,2.00
2019-02-18T02:49:18.585Z,2.47
2019-02-18T02:51:51.685Z,2.13
2019-02-18T02:54:22.651Z,1.60
2019-02-18T02:56:53.142Z,2.23
2019-02-18T02:59:28.539Z,2.30
2019-02-18T03:02:03.946Z,1.67
2019-02-18T03:04:33.771Z,2.10
2019-02-18T03:07:04.679Z,1.97
2019-02-18T03:09:36.713Z,1.93
2019-02-18T03:12:07.180Z,1.67
2019-02-18T03:14:37.467Z,2.37
2019-02-18T03:17:12.023Z,1.20
2019-02-18T03:19:45.100Z,2.13
2019-02-18T03:22:15.223Z,1.50
2019-02-18T03:25:55.690Z,2.03
2019-02-18T03:28:43.512Z,1.53
2019-02-18T03:31:19.435Z,2.03
2019-02-18T03:33:58.945Z,1.80
2019-02-18T03:36:28.817Z,1.90
2019-02-18T03:38:59.550Z,1.70
2019-02-18T03:41:29.709Z,2.00
2019-02-18T03:44:02.881Z,1.67
2019-02-18T03:49:10.845Z,1.97
2019-02-18T03:51:43.066Z,2.10
2019-02-18T03:54:17.839Z,2.83
2019-02-18T03:56:52.303Z,1.13
2019-02-18T03:59:22.563Z,1.67
2019-02-18T04:01:53.391Z,1.47
2019-02-18T04:04:25.214Z,1.50
2019-02-18T04:06:54.760Z,1.27
2019-02-18T04:09:24.244Z,1.70
2019-02-18T04:11:56.195Z,1.60
2019-02-18T04:14:26.021Z,1.47
2019-02-18T04:16:56.023Z,1.70
2019-02-18T04:19:27.981Z,1.50
2019-02-18T04:21:57.355Z,1.77
2019-02-18T04:24:31.919Z,1.87
2019-02-18T04:27:02.451Z,1.37
2019-02-18T04:29:31.536Z,1.90
2019-02-18T04:32:04.312Z,2.13
2019-02-18T04:34:34.354Z,1.57
2019-02-18T04:37:03.593Z,1.30
2019-02-18T04:39:33.518Z,2.10
2019-02-18T04:42:02.846Z,1.33
2019-02-18T04:44:33.064Z,1.33
2019-02-18T04:47:02.720Z,2.03
2019-02-18T04:49:31.782Z,1.77
2019-02-18T04:52:02.497Z,1.63
2019-02-18T04:54:33.427Z,1.20
2019-02-18T04:57:02.576Z,1.30
2019-02-18T04:59:32.306Z,1.13
2019-02-18T05:02:02.949Z,1.40
2019-02-18T05:04:33.897Z,1.90
2019-02-18T05:07:06.081Z,2.00
2019-02-18T05:09:35.689Z,1.63
2019-02-18T05:12:05.410Z,1.13
2019-02-18T05:14:39.804Z,1.77
2019-02-18T05:17:10.187Z,1.23
2019-02-18T05:19:39.757Z,1.83
2019-02-18T05:22:09.553Z,1.60
2019-02-18T05:24:42.582Z,1.23
2019-02-18T05:27:13.577Z,1.50
2019-02-18T05:29:46.492Z,1.83
2019-02-18T05:32:16.675Z,1.97
2019-02-18T05:34:48.242Z,1.40
2019-02-18T05:37:17.595Z,2.27
2019-02-18T05:39:47.604Z,1.83
2019-02-18T05:42:18.059Z,1.50
2019-02-18T05:44:47.914Z,1.10
2019-02-18T05:47:17.929Z,2.17
2019-02-18T05:49:48.541Z,1.63
2019-02-18T05:52:18.565Z,1.97
2019-02-18T05:54:47.676Z,1.87
2019-02-18T05:57:17.942Z,2.30
2019-02-18T05:59:49.529Z,2.90
2019-02-18T06:02:18.834Z,1.57
2019-02-18T06:04:51.613Z,2.00
2019-02-18T06:07:24.378Z,1.53
2019-02-18T06:09:54.632Z,2.10
2019-02-18T06:12:24.514Z,2.10
2019-02-18T06:14:54.990Z,2.33
2019-02-18T06:17:26.293Z,1.30
2019-02-18T06:19:55.994Z,2.10
2019-02-18T06:22:26.434Z,1.40
2019-02-18T06:24:59.937Z,1.57
2019-02-18T06:27:33.911Z,2.50
2019-02-18T06:30:11.445Z,2.00
2019-02-18T06:32:46.745Z,1.40
2019-02-18T06:35:16.474Z,2.27
2019-02-18T06:37:48.981Z,2.37
2019-02-18T06:40:21.524Z,2.07
2019-02-18T06:42:52.704Z,2.30
2019-02-18T06:49:41.264Z,1.53
2019-02-18T06:52:11.224Z,1.90
2019-02-18T06:54:41.663Z,2.23
2019-02-18T06:57:19.627Z,2.57
2019-02-18T06:59:56.688Z,1.93
2019-02-18T07:02:33.069Z,1.60
2019-02-18T07:05:07.187Z,1.53
2019-02-18T07:07:45.888Z,1.77
2019-02-18T07:10:24.011Z,2.10
2019-02-18T07:12:54.805Z,3.67
2019-02-18T07:15:25.841Z,1.93
2019-02-18T07:17:56.701Z,1.70
2019-02-18T07:20:30.089Z,1.37
2019-02-18T07:23:02.776Z,1.87
2019-02-18T07:25:33.786Z,1.67
2019-02-18T07:28:08.136Z,2.03
2019-02-18T07:30:43.081Z,2.83
2019-02-18T07:33:12.676Z,1.63
2019-02-18T07:35:42.675Z,1.70
2019-02-18T07:38:17.648Z,1.47
2019-02-18T07:40:47.445Z,1.53
2019-02-18T07:43:17.875Z,1.37
2019-02-18T07:45:48.273Z,3.87
2019-02-18T07:48:19.307Z,1.73
2019-02-18T07:50:48.447Z,2.90
2019-02-18T07:53:22.931Z,1.50
2019-02-18T07:55:53.466Z,3.43
2019-02-18T07:58:24.680Z,1.67
2019-02-18T08:00:55.456Z,1.53
2019-02-18T08:03:25.850Z,1.07
2019-02-18T08:05:55.918Z,1.43
2019-02-18T08:11:00.290Z,1.33
2019-02-18T08:13:40.197Z,1.93
2019-02-18T08:16:10.376Z,1.90
2019-02-18T08:18:48.607Z,1.67
2019-02-18T08:21:22.144Z,1.80
2019-02-18T08:24:00.098Z,1.23
2019-02-18T08:26:25.746Z,1.30
2019-02-18T08:28:56.988Z,3.93
2019-02-18T08:31:34.336Z,2.00
2019-02-18T08:34:05.574Z,1.70
2019-02-18T08:36:38.539Z,1.90
2019-02-18T08:39:10.422Z,3.00
2019-02-18T08:41:44.682Z,1.70
2019-02-18T08:47:02.831Z,1.93
2019-02-18T08:49:32.640Z,3.60
2019-02-18T08:52:06.683Z,1.77
2019-02-18T08:54:40.448Z,2.67
2019-02-18T08:57:21.737Z,2.53
2019-02-18T08:59:56.572Z,3.23
2019-02-18T09:02:39.295Z,2.40
2019-02-18T09:05:12.362Z,2.40
2019-02-18T09:07:44.000Z,2.20
2019-02-18T09:10:15.639Z,3.30
2019-02-18T09:12:46.599Z,2.73
2019-02-18T09:15:16.264Z,3.60
2019-02-18T09:17:57.887Z,3.07
2019-02-18T09:20:28.078Z,2.53
2019-02-18T09:23:08.125Z,2.97
2019-02-18T09:25:43.513Z,1.93
2019-02-18T09:28:12.725Z,2.23
2019-02-18T09:30:45.349Z,1.50
2019-02-18T09:33:16.070Z,2.50
2019-02-18T09:35:49.215Z,2.13
2019-02-18T09:38:24.996Z,2.40
2019-02-18T09:40:59.344Z,2.30
2019-02-18T09:43:35.873Z,2.50
2019-02-18T09:46:06.913Z,2.13
2019-02-18T09:48:38.270Z,3.80
2019-02-18T09:51:10.296Z,3.17
2019-02-18T09:53:51.843Z,2.87
2019-02-18T09:56:24.364Z,2.53
2019-02-18T09:58:55.969Z,3.57
2019-02-18T10:01:31.495Z,3.10
2019-02-18T10:04:06.391Z,3.73
2019-02-18T10:06:37.889Z,4.17
2019-02-18T10:09:07.706Z,3.47
2019-02-18T10:11:37.438Z,5.20
2019-02-18T10:14:56.073Z,4.40
2019-02-18T10:17:25.054Z,3.70
2019-02-18T10:20:02.015Z,1.93
2019-02-18T10:22:31.800Z,1.07
2019-02-18T10:25:01.956Z,1.30
2019-02-18T10:27:33.097Z,1.27
2019-02-18T10:30:02.160Z,1.43
2019-02-18T10:33:38.161Z,1.17
2019-02-18T10:36:07.407Z,1.07
2019-02-18T10:38:40.180Z,1.80
2019-02-18T10:41:14.055Z,2.10
2019-02-18T10:43:48.072Z,2.43
2019-02-18T10:46:17.677Z,2.47
2019-02-18T10:48:48.142Z,3.33
2019-02-18T10:51:18.789Z,2.43
2019-02-18T10:53:48.835Z,3.13
2019-02-18T10:56:19.015Z,2.63
2019-02-18T10:58:49.037Z,3.13
2019-02-18T11:01:18.873Z,3.50
2019-02-18T11:03:55.288Z,2.60
2019-02-18T11:06:28.092Z,2.37
2019-02-18T11:09:00.563Z,2.10
2019-02-18T11:11:31.576Z,2.63
2019-02-18T11:14:01.357Z,2.37
2019-02-18T11:16:47.968Z,2.30
2019-02-18T11:22:10.191Z,2.67
2019-02-18T11:24:43.382Z,3.30
2019-02-18T11:27:12.927Z,4.33
2019-02-18T11:29:42.579Z,3.53
2019-02-18T11:32:12.777Z,6.63
2019-02-18T11:34:41.981Z,4.33
2019-02-18T11:37:15.498Z,4.73
2019-02-18T11:39:47.855Z,3.83
2019-02-18T11:42:20.361Z,4.37
2019-02-18T11:48:51.228Z,4.20
2019-02-18T11:51:22.697Z,4.13
2019-02-18T11:53:53.517Z,3.43
2019-02-18T11:56:24.141Z,2.80
2019-02-18T11:58:53.398Z,3.63
2019-02-18T12:01:24.260Z,3.57
2019-02-18T12:03:59.236Z,3.00
2019-02-18T12:06:33.990Z,2.43
2019-02-18T12:09:09.794Z,3.23
2019-02-18T12:18:19.490Z,2.50
2019-02-18T12:20:50.108Z,2.80
2019-02-18T12:23:27.325Z,4.37
2019-02-18T12:25:57.015Z,3.10
2019-02-18T12:28:29.067Z,2.80
2019-02-18T12:30:59.696Z,2.47
2019-02-18T12:33:31.954Z,2.73
2019-02-18T12:36:04.329Z,2.60
2019-02-18T12:38:37.434Z,2.83
2019-02-18T12:41:15.751Z,2.73
2019-02-18T12:43:47.762Z,2.63
2019-02-18T12:46:21.938Z,2.60
2019-02-18T12:48:52.131Z,2.07
2019-02-18T12:51:23.311Z,2.67
2019-02-18T12:53:53.438Z,3.13
2019-02-18T12:56:31.951Z,3.83
2019-02-18T12:59:08.968Z,4.67
2019-02-18T13:01:51.726Z,2.30
2019-02-18T13:04:27.371Z,4.40
2019-02-18T13:07:03.111Z,2.70
2019-02-18T13:09:34.103Z,4.80
2019-02-18T13:12:09.533Z,3.07
2019-02-18T13:14:40.627Z,2.17
2019-02-18T13:17:11.882Z,2.37
2019-02-18T13:19:43.706Z,1.73
2019-02-18T13:22:23.623Z,2.30
2019-02-18T13:24:55.862Z,1.90
2019-02-18T13:27:33.238Z,2.57
2019-02-18T13:30:03.338Z,3.77
2019-02-18T13:32:42.629Z,4.67
2019-02-18T13:35:12.646Z,4.80
2019-02-18T13:37:42.522Z,6.47
2019-02-18T13:40:12.099Z,4.67
2019-02-18T13:42:41.145Z,6.80
2019-02-18T13:45:15.874Z,4.70
2019-02-18T13:47:46.891Z,3.50
2019-02-18T13:50:24.165Z,5.37
2019-02-18T13:52:57.708Z,3.47
2019-02-18T13:55:35.116Z,2.43
2019-02-18T13:58:04.778Z,2.37
2019-02-18T14:00:40.937Z,2.00
2019-02-18T14:03:10.997Z,5.33
2019-02-18T14:05:42.995Z,1.50
2019-02-18T14:08:15.679Z,1.97
2019-02-18T14:10:54.990Z,2.83
2019-02-18T14:13:24.461Z,1.70
2019-02-18T14:16:00.138Z,3.50
2019-02-18T14:18:34.013Z,3.87
2019-02-18T14:21:05.015Z,3.23
2019-02-18T14:23:38.747Z,2.93
2019-02-18T14:26:13.487Z,2.33
2019-02-18T14:28:48.159Z,2.23
2019-02-18T14:31:20.773Z,2.70
2019-02-18T14:33:52.196Z,1.93
2019-02-18T14:36:24.979Z,3.23
2019-02-18T14:38:58.479Z,1.80
2019-02-18T14:41:30.581Z,2.00
2019-02-18T14:44:09.514Z,2.03
2019-02-18T14:46:51.240Z,2.03
2019-02-18T14:49:26.117Z,1.83
2019-02-18T14:52:06.206Z,2.07
2019-02-18T14:54:53.611Z,2.50
2019-02-18T14:57:24.300Z,1.60
2019-02-18T14:59:53.669Z,1.87
2019-02-18T15:02:28.372Z,2.20
2019-02-18T15:04:58.569Z,2.10
2019-02-18T15:07:29.479Z,2.90
2019-02-18T15:09:59.742Z,1.10
2019-02-18T15:12:33.257Z,2.50
2019-02-18T15:15:02.930Z,2.47
2019-02-18T15:17:46.937Z,5.93
2019-02-18T15:20:20.325Z,2.43
2019-02-18T15:22:50.517Z,2.27
2019-02-18T15:25:21.790Z,3.03
2019-02-18T15:27:52.720Z,2.10
2019-02-18T15:30:22.538Z,2.20
2019-02-18T15:32:54.822Z,2.40
2019-02-18T15:35:27.506Z,1.67
2019-02-18T15:37:59.610Z,3.00
2019-02-18T15:40:29.149Z,2.90
2019-02-18T15:43:00.841Z,2.80
2019-02-18T15:45:31.003Z,2.10
2019-02-18T15:48:02.112Z,2.07
2019-02-18T15:50:36.142Z,2.53
2019-02-18T15:53:07.328Z,2.90
2019-02-18T15:55:38.839Z,3.17
2019-02-18T15:58:09.834Z,3.30
2019-02-18T16:03:23.951Z,2.33
2019-02-18T16:05:55.719Z,3.50
2019-02-18T16:08:30.262Z,3.23
2019-02-18T16:11:06.593Z,3.10
2019-02-18T16:13:38.598Z,3.27
2019-02-18T16:16:10.545Z,2.40
2019-02-18T16:18:41.690Z,3.67
2019-02-18T16:21:14.641Z,2.40
2019-02-18T16:23:46.118Z,2.67
2019-02-18T16:26:19.769Z,4.00
2019-02-18T16:28:55.039Z,2.73
2019-02-18T16:31:30.601Z,3.70
2019-02-18T16:34:02.551Z,3.10
2019-02-18T16:36:32.485Z,3.73
2019-02-18T16:39:05.431Z,3.10
2019-02-18T16:41:41.570Z,4.20
2019-02-18T16:44:11.583Z,3.30
2019-02-18T16:46:44.741Z,3.67
2019-02-18T16:49:22.579Z,3.43
2019-02-18T16:51:52.492Z,4.60
2019-02-18T16:54:25.321Z,4.00
2019-02-18T16:57:02.444Z,2.80
2019-02-18T16:59:31.548Z,3.50
2019-02-18T17:02:18.316Z,5.43
2019-02-18T17:04:47.798Z,4.63
2019-02-18T17:07:18.587Z,4.20
2019-02-18T17:09:50.619Z,2.73
2019-02-18T17:12:21.249Z,3.67
2019-02-18T17:15:05.915Z,3.43
2019-02-18T17:17:41.067Z,3.40
2019-02-18T17:20:11.720Z,4.83
2019-02-18T17:23:10.826Z,4.30
2019-02-18T17:25:41.217Z,5.27
2019-02-18T17:28:13.807Z,5.07
2019-02-18T17:30:49.199Z,4.47
2019-02-18T17:33:21.574Z,3.93
2019-02-18T17:35:52.568Z,4.20
2019-02-18T17:38:26.112Z,2.83
2019-02-18T17:40:58.778Z,8.57
2019-02-18T17:43:32.845Z,4.23
2019-02-18T17:46:13.222Z,4.20
2019-02-18T17:48:45.485Z,3.30
2019-02-18T17:51:19.030Z,4.73
2019-02-18T17:53:52.872Z,3.70
2019-02-18T17:56:28.949Z,4.07
2019-02-18T17:59:05.296Z,3.57
2019-02-18T18:01:36.298Z,3.00
2019-02-18T18:04:08.397Z,3.07
2019-02-18T18:06:42.270Z,3.53
2019-02-18T18:11:51.270Z,3.33
2019-02-18T18:14:28.282Z,4.10
2019-02-18T18:17:06.905Z,4.73
2019-02-18T18:19:36.340Z,5.37
2019-02-18T18:22:14.479Z,5.37
2019-02-18T18:24:52.080Z,4.13
2019-02-18T18:27:22.915Z,4.50
2019-02-18T18:30:02.782Z,4.07
2019-02-18T18:32:36.006Z,4.83
2019-02-18T18:35:05.999Z,4.20
2019-02-18T18:37:40.179Z,7.30
2019-02-18T18:40:11.957Z,6.10
2019-02-18T18:42:43.098Z,4.57
2019-02-18T18:45:19.466Z,4.33
2019-02-18T18:48:01.190Z,4.43
2019-02-18T18:50:32.687Z,4.40
2019-02-18T18:53:06.040Z,5.00
2019-02-18T18:55:47.894Z,4.37
2019-02-18T18:58:25.490Z,3.70
2019-02-18T19:01:01.721Z,4.23
2019-02-18T19:03:37.094Z,5.30
2019-02-18T19:06:10.647Z,3.77
2019-02-18T19:08:47.702Z,5.50
2019-02-18T19:11:20.386Z,5.40
2019-02-18T19:13:55.984Z,4.33
2019-02-18T19:16:28.683Z,5.70
2019-02-18T19:19:02.958Z,4.00
2019-02-18T19:21:34.779Z,4.53
2019-02-18T19:24:08.750Z,3.93
2019-02-18T19:26:43.700Z,4.63
2019-02-18T19:29:15.841Z,3.70
2019-02-18T19:31:45.985Z,3.70
2019-02-18T19:34:21.071Z,3.40
2019-02-18T19:36:53.476Z,2.70
2019-02-18T19:39:27.587Z,2.77
2019-02-18T19:41:58.907Z,4.03
2019-02-18T19:44:28.254Z,4.37
2019-02-18T19:47:00.982Z,2.93
2019-02-18T19:49:36.723Z,3.00
2019-02-18T19:52:06.762Z,4.37
2019-02-18T19:54:45.383Z,3.93
2019-02-18T19:57:17.528Z,3.70
2019-02-18T19:59:50.122Z,3.57
2019-02-18T20:02:21.719Z,4.23
2019-02-18T20:04:51.237Z,9.13
2019-02-18T20:07:21.478Z,3.53
2019-02-18T20:09:53.946Z,3.77
2019-02-18T20:12:26.599Z,2.93
2019-02-18T20:14:56.974Z,3.50
2019-02-18T20:17:30.015Z,2.83
2019-02-18T20:20:07.198Z,2.70
2019-02-18T20:22:48.029Z,3.47
2019-02-18T20:25:19.311Z,2.23
2019-02-18T20:27:59.077Z,3.63
2019-02-18T20:30:36.270Z,3.07
2019-02-18T20:33:07.488Z,5.47
2019-02-18T20:35:38.080Z,5.37
2019-02-18T20:38:16.345Z,3.40
2019-02-18T20:40:48.049Z,4.20
2019-02-18T20:43:18.209Z,2.33
2019-02-18T20:45:49.760Z,2.67
2019-02-18T20:48:23.123Z,3.30
2019-02-18T20:50:55.846Z,3.07
2019-02-18T20:53:30.838Z,2.57
2019-02-18T20:58:39.741Z,2.87
2019-02-18T21:01:14.938Z,2.53
2019-02-18T21:03:50.083Z,3.03
2019-02-18T21:06:20.649Z,2.87
2019-02-18T21:09:00.408Z,2.67
2019-02-18T21:11:31.538Z,2.30
2019-02-18T21:14:14.351Z,3.43
2019-02-18T21:16:44.537Z,2.77
2019-02-18T21:19:18.763Z,4.47
2019-02-18T21:21:50.671Z,2.63
2019-02-18T21:24:23.356Z,3.87
2019-02-18T21:26:56.390Z,3.60
2019-02-18T21:29:27.654Z,3.20
2019-02-18T21:32:00.012Z,3.37
2019-02-18T21:34:31.580Z,2.60
2019-02-18T21:37:05.499Z,2.07
2019-02-18T21:39:36.961Z,2.37
2019-02-18T21:42:07.627Z,2.50
2019-02-18T21:44:43.546Z,3.00
2019-02-18T21:47:14.960Z,2.60
2019-02-18T21:49:58.603Z,3.17
2019-02-18T21:52:40.310Z,3.63
2019-02-18T21:55:16.869Z,2.83
2019-02-18T21:57:51.667Z,4.17
2019-02-18T22:00:24.257Z,3.50
2019-02-18T22:02:55.496Z,3.87
2019-02-18T22:05:27.465Z,2.80
2019-02-18T22:08:04.510Z,2.23
2019-02-18T22:10:41.836Z,3.53
2019-02-18T22:13:23.538Z,2.40
2019-02-18T22:16:02.346Z,2.53
2019-02-18T22:18:34.174Z,6.33
2019-02-18T22:21:04.918Z,3.50
2019-02-18T22:23:36.017Z,1.97
2019-02-18T22:26:08.840Z,3.20
2019-02-18T22:28:51.213Z,1.97
2019-02-18T22:31:20.545Z,2.80
2019-02-18T22:33:56.761Z,2.47
2019-02-18T22:36:28.284Z,2.83
2019-02-18T22:38:57.980Z,2.60
2019-02-18T22:41:39.593Z,2.80
2019-02-18T22:44:10.473Z,3.67
2019-02-18T22:46:43.513Z,3.57
2019-02-18T22:49:17.897Z,2.87
2019-02-18T22:51:52.820Z,3.07
2019-02-18T22:54:26.512Z,2.40
2019-02-18T22:56:55.916Z,3.83
2019-02-18T22:59:25.534Z,2.97
2019-02-18T23:01:56.270Z,2.60
2019-02-18T23:04:26.070Z,2.83
2019-02-18T23:06:58.541Z,1.77
2019-02-18T23:09:28.604Z,2.00
2019-02-18T23:12:02.412Z,3.17
2019-02-18T23:14:32.461Z,2.60
2019-02-18T23:17:03.434Z,2.13
2019-02-18T23:19:38.204Z,3.27
2019-02-18T23:22:10.197Z,2.90
2019-02-18T23:24:42.642Z,1.73
2019-02-18T23:27:14.913Z,2.27
2019-02-18T23:29:49.822Z,2.17
2019-02-18T23:32:20.771Z,3.00
2019-02-18T23:35:02.003Z,2.57
2019-02-18T23:37:34.340Z,4.97
2019-02-18T23:40:03.940Z,3.20
2019-02-18T23:42:34.481Z,4.07
2019-02-18T23:45:08.390Z,3.80
2019-02-18T23:47:45.549Z,3.33
2019-02-18T23:50:15.114Z,2.77
2019-02-18T23:52:46.514Z,3.70
2019-02-18T23:55:16.317Z,2.53
2019-02-18T23:57:47.258Z,2.43
